sensor_id;sensor_type;location;lat;lon;timestamp;temperature;humidity
16417;DHT22;8317;52.186;5.688;2023-07-13T00:01:45;17.40;99.90
16417;DHT22;8317;52.186;5.688;2023-07-13T00:04:15;17.50;99.90
16417;DHT22;8317;52.186;5.688;2023-07-13T00:06:42;17.40;99.90
16417;DHT22;8317;52.186;5.688;2023-07-13T00:09:10;17.40;99.90
16417;DHT22;8317;52.186;5.688;2023-07-13T00:11:38;17.40;99.90
16417;DHT22;8317;52.186;5.688;2023-07-13T00:14:05;17.40;99.90
16417;DHT22;8317;52.186;5.688;2023-07-13T00:16:34;17.40;99.90
16417;DHT22;8317;52.186;5.688;2023-07-13T00:19:01;17.30;99.90
16417;DHT22;8317;52.186;5.688;2023-07-13T00:21:28;17.30;99.90
16417;DHT22;8317;52.186;5.688;2023-07-13T00:23:55;17.20;99.90
16417;DHT22;8317;52.186;5.688;2023-07-13T00:26:22;17.20;99.90
16417;DHT22;8317;52.186;5.688;2023-07-13T00:28:49;17.20;99.90
16417;DHT22;8317;52.186;5.688;2023-07-13T00:31:15;17.20;99.90
16417;DHT22;8317;52.186;5.688;2023-07-13T00:33:44;17.20;99.90
16417;DHT22;8317;52.186;5.688;2023-07-13T00:36:11;17.20;99.90
16417;DHT22;8317;52.186;5.688;2023-07-13T00:38:38;17.10;99.90
16417;DHT22;8317;52.186;5.688;2023-07-13T00:41:05;17.20;99.90
16417;DHT22;8317;52.186;5.688;2023-07-13T00:43:32;17.10;99.90
16417;DHT22;8317;52.186;5.688;2023-07-13T00:46:21;17.00;99.90
16417;DHT22;8317;52.186;5.688;2023-07-13T00:48:51;17.00;99.90
16417;DHT22;8317;52.186;5.688;2023-07-13T00:51:22;17.00;99.90
16417;DHT22;8317;52.186;5.688;2023-07-13T00:53:51;17.00;99.90
16417;DHT22;8317;52.186;5.688;2023-07-13T00:56:19;16.90;99.90
16417;DHT22;8317;52.186;5.688;2023-07-13T00:58:47;16.90;99.90
16417;DHT22;8317;52.186;5.688;2023-07-13T01:01:14;16.90;99.90
16417;DHT22;8317;52.186;5.688;2023-07-13T01:03:40;16.80;99.90
16417;DHT22;8317;52.186;5.688;2023-07-13T01:06:09;16.80;99.90
16417;DHT22;8317;52.186;5.688;2023-07-13T01:08:36;16.80;99.90
16417;DHT22;8317;52.186;5.688;2023-07-13T01:11:03;16.80;99.90
16417;DHT22;8317;52.186;5.688;2023-07-13T01:13:30;16.70;99.90
16417;DHT22;8317;52.186;5.688;2023-07-13T01:15:58;16.70;99.90
16417;DHT22;8317;52.186;5.688;2023-07-13T01:18:29;16.70;99.90
16417;DHT22;8317;52.186;5.688;2023-07-13T01:20:59;16.70;99.90
16417;DHT22;8317;52.186;5.688;2023-07-13T01:23:28;16.60;99.90
16417;DHT22;8317;52.186;5.688;2023-07-13T01:25:56;16.60;99.90
16417;DHT22;8317;52.186;5.688;2023-07-13T01:28:24;16.70;99.90
16417;DHT22;8317;52.186;5.688;2023-07-13T01:30:53;16.70;99.90
16417;DHT22;8317;52.186;5.688;2023-07-13T01:33:20;16.60;99.90
16417;DHT22;8317;52.186;5.688;2023-07-13T01:35:47;16.50;99.90
16417;DHT22;8317;52.186;5.688;2023-07-13T01:38:17;16.50;99.90
16417;DHT22;8317;52.186;5.688;2023-07-13T01:40:44;16.40;99.90
16417;DHT22;8317;52.186;5.688;2023-07-13T01:43:11;16.40;99.90
16417;DHT22;8317;52.186;5.688;2023-07-13T01:45:39;16.40;99.90
16417;DHT22;8317;52.186;5.688;2023-07-13T01:48:06;16.40;99.90
16417;DHT22;8317;52.186;5.688;2023-07-13T01:50:33;16.40;99.90
16417;DHT22;8317;52.186;5.688;2023-07-13T01:53:00;16.40;99.90
16417;DHT22;8317;52.186;5.688;2023-07-13T01:55:29;16.40;99.90
16417;DHT22;8317;52.186;5.688;2023-07-13T01:57:56;16.40;99.90
16417;DHT22;8317;52.186;5.688;2023-07-13T02:00:23;16.40;99.90
16417;DHT22;8317;52.186;5.688;2023-07-13T02:02:51;16.20;99.90
16417;DHT22;8317;52.186;5.688;2023-07-13T02:05:18;16.20;99.90
16417;DHT22;8317;52.186;5.688;2023-07-13T02:07:45;16.20;99.90
16417;DHT22;8317;52.186;5.688;2023-07-13T02:10:12;16.20;99.90
16417;DHT22;8317;52.186;5.688;2023-07-13T02:12:41;16.20;99.90
16417;DHT22;8317;52.186;5.688;2023-07-13T02:15:09;16.10;99.90
16417;DHT22;8317;52.186;5.688;2023-07-13T02:17:37;16.10;99.90
16417;DHT22;8317;52.186;5.688;2023-07-13T02:20:05;16.00;99.90
16417;DHT22;8317;52.186;5.688;2023-07-13T02:22:32;16.00;99.90
16417;DHT22;8317;52.186;5.688;2023-07-13T02:24:59;16.00;99.90
16417;DHT22;8317;52.186;5.688;2023-07-13T02:27:26;15.90;99.90
16417;DHT22;8317;52.186;5.688;2023-07-13T02:29:55;15.80;99.90
16417;DHT22;8317;52.186;5.688;2023-07-13T02:32:22;15.90;99.90
16417;DHT22;8317;52.186;5.688;2023-07-13T02:34:50;15.80;99.90
16417;DHT22;8317;52.186;5.688;2023-07-13T02:37:17;15.80;99.90
16417;DHT22;8317;52.186;5.688;2023-07-13T02:39:44;15.80;99.90
16417;DHT22;8317;52.186;5.688;2023-07-13T02:42:11;15.80;99.90
16417;DHT22;8317;52.186;5.688;2023-07-13T02:44:38;15.70;99.90
16417;DHT22;8317;52.186;5.688;2023-07-13T02:47:07;15.80;99.90
16417;DHT22;8317;52.186;5.688;2023-07-13T02:49:33;15.80;99.90
16417;DHT22;8317;52.186;5.688;2023-07-13T02:52:02;15.80;99.90
16417;DHT22;8317;52.186;5.688;2023-07-13T02:54:29;15.70;99.90
16417;DHT22;8317;52.186;5.688;2023-07-13T02:56:55;15.80;99.90
16417;DHT22;8317;52.186;5.688;2023-07-13T02:59:22;15.80;99.90
16417;DHT22;8317;52.186;5.688;2023-07-13T03:01:49;15.70;99.90
16417;DHT22;8317;52.186;5.688;2023-07-13T03:04:17;15.70;99.90
16417;DHT22;8317;52.186;5.688;2023-07-13T03:06:45;15.60;99.90
16417;DHT22;8317;52.186;5.688;2023-07-13T03:09:11;15.70;99.90
16417;DHT22;8317;52.186;5.688;2023-07-13T03:11:39;15.60;99.90
16417;DHT22;8317;52.186;5.688;2023-07-13T03:14:07;15.60;99.90
16417;DHT22;8317;52.186;5.688;2023-07-13T03:16:34;15.60;99.90
16417;DHT22;8317;52.186;5.688;2023-07-13T03:19:00;15.60;99.90
16417;DHT22;8317;52.186;5.688;2023-07-13T03:21:29;15.60;99.90
16417;DHT22;8317;52.186;5.688;2023-07-13T03:23:56;15.50;99.90
16417;DHT22;8317;52.186;5.688;2023-07-13T03:26:22;15.50;99.90
16417;DHT22;8317;52.186;5.688;2023-07-13T03:28:49;15.50;99.90
16417;DHT22;8317;52.186;5.688;2023-07-13T03:31:17;15.40;99.90
16417;DHT22;8317;52.186;5.688;2023-07-13T03:33:45;15.40;99.90
16417;DHT22;8317;52.186;5.688;2023-07-13T03:36:15;15.50;99.90
16417;DHT22;8317;52.186;5.688;2023-07-13T03:38:46;15.50;99.90
16417;DHT22;8317;52.186;5.688;2023-07-13T03:41:14;15.60;99.90
16417;DHT22;8317;52.186;5.688;2023-07-13T03:43:41;15.50;99.90
16417;DHT22;8317;52.186;5.688;2023-07-13T03:46:08;15.50;99.90
16417;DHT22;8317;52.186;5.688;2023-07-13T03:48:35;15.50;99.90
16417;DHT22;8317;52.186;5.688;2023-07-13T03:51:02;15.60;99.90
16417;DHT22;8317;52.186;5.688;2023-07-13T03:53:29;15.60;99.90
16417;DHT22;8317;52.186;5.688;2023-07-13T03:55:57;15.60;99.90
16417;DHT22;8317;52.186;5.688;2023-07-13T03:58:28;15.60;99.90
16417;DHT22;8317;52.186;5.688;2023-07-13T04:00:56;15.60;99.90
16417;DHT22;8317;52.186;5.688;2023-07-13T04:03:24;15.60;99.90
16417;DHT22;8317;52.186;5.688;2023-07-13T04:05:54;15.60;99.90
16417;DHT22;8317;52.186;5.688;2023-07-13T04:08:25;15.50;99.90
16417;DHT22;8317;52.186;5.688;2023-07-13T04:10:52;15.50;99.90
16417;DHT22;8317;52.186;5.688;2023-07-13T04:13:21;15.50;99.90
16417;DHT22;8317;52.186;5.688;2023-07-13T04:15:48;15.50;99.90
16417;DHT22;8317;52.186;5.688;2023-07-13T04:18:15;15.50;99.90
16417;DHT22;8317;52.186;5.688;2023-07-13T04:20:42;15.50;99.90
16417;DHT22;8317;52.186;5.688;2023-07-13T04:23:09;15.50;99.90
16417;DHT22;8317;52.186;5.688;2023-07-13T04:25:35;15.50;99.90
16417;DHT22;8317;52.186;5.688;2023-07-13T04:28:03;15.60;99.90
16417;DHT22;8317;52.186;5.688;2023-07-13T04:30:31;15.60;99.90
16417;DHT22;8317;52.186;5.688;2023-07-13T04:32:58;15.60;99.90
16417;DHT22;8317;52.186;5.688;2023-07-13T04:35:25;15.50;99.90
16417;DHT22;8317;52.186;5.688;2023-07-13T04:37:52;15.60;99.90
16417;DHT22;8317;52.186;5.688;2023-07-13T04:40:20;15.60;99.90
16417;DHT22;8317;52.186;5.688;2023-07-13T04:42:47;15.60;99.90
16417;DHT22;8317;52.186;5.688;2023-07-13T04:45:14;15.60;99.90
16417;DHT22;8317;52.186;5.688;2023-07-13T04:47:44;15.60;99.90
16417;DHT22;8317;52.186;5.688;2023-07-13T04:50:13;15.60;99.90
16417;DHT22;8317;52.186;5.688;2023-07-13T04:52:41;15.70;99.90
16417;DHT22;8317;52.186;5.688;2023-07-13T04:55:08;15.60;99.90
16417;DHT22;8317;52.186;5.688;2023-07-13T04:57:35;15.60;99.90
16417;DHT22;8317;52.186;5.688;2023-07-13T05:00:03;15.70;99.90
16417;DHT22;8317;52.186;5.688;2023-07-13T05:02:32;15.70;99.90
16417;DHT22;8317;52.186;5.688;2023-07-13T05:05:02;15.90;99.90
16417;DHT22;8317;52.186;5.688;2023-07-13T05:07:29;15.90;99.90
16417;DHT22;8317;52.186;5.688;2023-07-13T05:09:58;15.80;99.90
16417;DHT22;8317;52.186;5.688;2023-07-13T05:12:25;16.00;99.90
16417;DHT22;8317;52.186;5.688;2023-07-13T05:14:52;15.90;99.90
16417;DHT22;8317;52.186;5.688;2023-07-13T05:17:19;16.00;99.90
16417;DHT22;8317;52.186;5.688;2023-07-13T05:19:45;16.00;99.90
16417;DHT22;8317;52.186;5.688;2023-07-13T05:22:14;16.10;99.90
16417;DHT22;8317;52.186;5.688;2023-07-13T05:24:41;16.10;99.90
16417;DHT22;8317;52.186;5.688;2023-07-13T05:27:07;16.20;99.90
16417;DHT22;8317;52.186;5.688;2023-07-13T05:29:34;16.20;99.90
16417;DHT22;8317;52.186;5.688;2023-07-13T05:32:01;16.30;99.90
16417;DHT22;8317;52.186;5.688;2023-07-13T05:34:29;16.30;99.90
16417;DHT22;8317;52.186;5.688;2023-07-13T05:36:56;16.40;99.90
16417;DHT22;8317;52.186;5.688;2023-07-13T05:39:24;16.40;99.90
16417;DHT22;8317;52.186;5.688;2023-07-13T05:41:51;16.50;99.90
16417;DHT22;8317;52.186;5.688;2023-07-13T05:44:18;16.50;99.90
16417;DHT22;8317;52.186;5.688;2023-07-13T05:46:46;16.50;99.90
16417;DHT22;8317;52.186;5.688;2023-07-13T05:49:12;16.60;99.90
16417;DHT22;8317;52.186;5.688;2023-07-13T05:51:39;16.70;99.90
16417;DHT22;8317;52.186;5.688;2023-07-13T05:54:06;16.70;99.90
16417;DHT22;8317;52.186;5.688;2023-07-13T05:56:34;16.70;99.90
16417;DHT22;8317;52.186;5.688;2023-07-13T05:59:01;16.80;99.90
16417;DHT22;8317;52.186;5.688;2023-07-13T06:01:30;16.80;99.90
16417;DHT22;8317;52.186;5.688;2023-07-13T06:03:57;16.80;99.90
16417;DHT22;8317;52.186;5.688;2023-07-13T06:06:24;17.00;99.90
16417;DHT22;8317;52.186;5.688;2023-07-13T06:08:51;16.90;99.90
16417;DHT22;8317;52.186;5.688;2023-07-13T06:11:20;17.00;99.90
16417;DHT22;8317;52.186;5.688;2023-07-13T06:13:49;17.00;99.90
16417;DHT22;8317;52.186;5.688;2023-07-13T06:16:16;16.90;99.90
16417;DHT22;8317;52.186;5.688;2023-07-13T06:18:44;16.90;99.90
16417;DHT22;8317;52.186;5.688;2023-07-13T06:21:13;16.90;99.90
16417;DHT22;8317;52.186;5.688;2023-07-13T06:23:40;17.00;99.90
16417;DHT22;8317;52.186;5.688;2023-07-13T06:26:08;17.00;99.90
16417;DHT22;8317;52.186;5.688;2023-07-13T06:28:35;17.10;99.90
16417;DHT22;8317;52.186;5.688;2023-07-13T06:31:05;17.10;99.90
16417;DHT22;8317;52.186;5.688;2023-07-13T06:33:32;17.20;99.90
16417;DHT22;8317;52.186;5.688;2023-07-13T06:36:00;17.30;99.90
16417;DHT22;8317;52.186;5.688;2023-07-13T06:38:27;17.40;99.90
16417;DHT22;8317;52.186;5.688;2023-07-13T06:40:55;17.50;99.90
16417;DHT22;8317;52.186;5.688;2023-07-13T06:43:22;17.60;99.90
16417;DHT22;8317;52.186;5.688;2023-07-13T06:45:50;17.60;99.90
16417;DHT22;8317;52.186;5.688;2023-07-13T06:48:19;17.60;99.90
16417;DHT22;8317;52.186;5.688;2023-07-13T06:50:48;17.70;99.90
16417;DHT22;8317;52.186;5.688;2023-07-13T06:53:17;17.70;99.90
16417;DHT22;8317;52.186;5.688;2023-07-13T06:55:46;17.60;99.90
16417;DHT22;8317;52.186;5.688;2023-07-13T06:58:17;17.60;99.90
16417;DHT22;8317;52.186;5.688;2023-07-13T07:00:44;17.60;99.90
16417;DHT22;8317;52.186;5.688;2023-07-13T07:03:12;17.60;99.90
16417;DHT22;8317;52.186;5.688;2023-07-13T07:05:40;17.70;99.90
16417;DHT22;8317;52.186;5.688;2023-07-13T07:08:07;17.70;99.90
16417;DHT22;8317;52.186;5.688;2023-07-13T07:10:34;17.80;99.90
16417;DHT22;8317;52.186;5.688;2023-07-13T07:13:02;17.90;99.90
16417;DHT22;8317;52.186;5.688;2023-07-13T07:15:30;18.00;99.90
16417;DHT22;8317;52.186;5.688;2023-07-13T07:17:57;18.20;99.90
16417;DHT22;8317;52.186;5.688;2023-07-13T07:20:24;18.40;99.90
16417;DHT22;8317;52.186;5.688;2023-07-13T07:22:52;18.40;99.90
16417;DHT22;8317;52.186;5.688;2023-07-13T07:25:19;18.40;99.90
16417;DHT22;8317;52.186;5.688;2023-07-13T07:27:46;18.60;99.90
16417;DHT22;8317;52.186;5.688;2023-07-13T07:30:13;18.70;99.90
16417;DHT22;8317;52.186;5.688;2023-07-13T07:32:40;18.70;99.90
16417;DHT22;8317;52.186;5.688;2023-07-13T07:35:08;18.60;99.90
16417;DHT22;8317;52.186;5.688;2023-07-13T07:37:35;18.60;99.90
16417;DHT22;8317;52.186;5.688;2023-07-13T07:40:04;18.50;99.90
16417;DHT22;8317;52.186;5.688;2023-07-13T07:42:32;18.50;99.90
16417;DHT22;8317;52.186;5.688;2023-07-13T07:44:59;18.80;99.90
16417;DHT22;8317;52.186;5.688;2023-07-13T07:47:27;19.20;99.90
16417;DHT22;8317;52.186;5.688;2023-07-13T07:49:54;19.30;99.90
16417;DHT22;8317;52.186;5.688;2023-07-13T07:52:21;19.30;99.90
16417;DHT22;8317;52.186;5.688;2023-07-13T07:54:48;19.20;99.90
16417;DHT22;8317;52.186;5.688;2023-07-13T07:57:16;19.10;99.90
16417;DHT22;8317;52.186;5.688;2023-07-13T07:59:43;19.00;99.90
16417;DHT22;8317;52.186;5.688;2023-07-13T08:02:10;18.90;99.90
16417;DHT22;8317;52.186;5.688;2023-07-13T08:04:37;18.80;99.90
16417;DHT22;8317;52.186;5.688;2023-07-13T08:07:05;18.70;99.90
16417;DHT22;8317;52.186;5.688;2023-07-13T08:09:32;18.70;99.90
16417;DHT22;8317;52.186;5.688;2023-07-13T08:11:59;18.80;99.90
16417;DHT22;8317;52.186;5.688;2023-07-13T08:14:27;18.90;99.90
16417;DHT22;8317;52.186;5.688;2023-07-13T08:16:55;18.80;99.90
16417;DHT22;8317;52.186;5.688;2023-07-13T08:19:22;18.90;99.90
16417;DHT22;8317;52.186;5.688;2023-07-13T08:21:48;18.80;99.90
16417;DHT22;8317;52.186;5.688;2023-07-13T08:24:15;18.80;99.90
16417;DHT22;8317;52.186;5.688;2023-07-13T08:26:44;19.00;99.90
16417;DHT22;8317;52.186;5.688;2023-07-13T08:29:11;18.90;99.90
16417;DHT22;8317;52.186;5.688;2023-07-13T08:31:40;19.00;99.90
16417;DHT22;8317;52.186;5.688;2023-07-13T08:34:06;19.00;99.90
16417;DHT22;8317;52.186;5.688;2023-07-13T08:36:33;19.20;99.90
16417;DHT22;8317;52.186;5.688;2023-07-13T08:39:00;19.60;99.90
16417;DHT22;8317;52.186;5.688;2023-07-13T08:41:27;19.90;99.90
16417;DHT22;8317;52.186;5.688;2023-07-13T08:43:59;19.90;99.90
16417;DHT22;8317;52.186;5.688;2023-07-13T08:46:31;20.10;99.90
16417;DHT22;8317;52.186;5.688;2023-07-13T08:49:02;19.90;99.90
16417;DHT22;8317;52.186;5.688;2023-07-13T08:51:38;19.80;99.90
16417;DHT22;8317;52.186;5.688;2023-07-13T08:54:16;19.70;99.90
16417;DHT22;8317;52.186;5.688;2023-07-13T08:56:45;19.70;99.90
16417;DHT22;8317;52.186;5.688;2023-07-13T08:59:14;19.70;99.90
16417;DHT22;8317;52.186;5.688;2023-07-13T09:04:45;19.40;99.90
16417;DHT22;8317;52.186;5.688;2023-07-13T09:07:23;19.40;99.90
16417;DHT22;8317;52.186;5.688;2023-07-13T09:09:59;19.40;99.90
16417;DHT22;8317;52.186;5.688;2023-07-13T09:12:38;19.50;99.90
16417;DHT22;8317;52.186;5.688;2023-07-13T09:15:19;19.60;99.90
16417;DHT22;8317;52.186;5.688;2023-07-13T09:17:50;19.60;99.90
16417;DHT22;8317;52.186;5.688;2023-07-13T09:20:23;19.50;99.90
16417;DHT22;8317;52.186;5.688;2023-07-13T09:22:53;19.40;99.90
16417;DHT22;8317;52.186;5.688;2023-07-13T09:25:24;19.40;99.90
16417;DHT22;8317;52.186;5.688;2023-07-13T09:27:58;19.30;99.90
16417;DHT22;8317;52.186;5.688;2023-07-13T09:30:33;19.10;99.90
16417;DHT22;8317;52.186;5.688;2023-07-13T09:33:00;19.10;99.90
16417;DHT22;8317;52.186;5.688;2023-07-13T09:35:29;19.20;99.90
16417;DHT22;8317;52.186;5.688;2023-07-13T09:38:09;19.40;99.90
16417;DHT22;8317;52.186;5.688;2023-07-13T09:40:46;19.50;99.90
16417;DHT22;8317;52.186;5.688;2023-07-13T09:43:17;19.80;99.90
16417;DHT22;8317;52.186;5.688;2023-07-13T09:45:46;20.30;99.90
16417;DHT22;8317;52.186;5.688;2023-07-13T09:48:15;20.80;99.90
16417;DHT22;8317;52.186;5.688;2023-07-13T09:50:44;21.30;99.90
16417;DHT22;8317;52.186;5.688;2023-07-13T09:53:12;21.80;99.90
16417;DHT22;8317;52.186;5.688;2023-07-13T09:55:42;22.00;99.90
16417;DHT22;8317;52.186;5.688;2023-07-13T09:58:12;22.10;99.90
16417;DHT22;8317;52.186;5.688;2023-07-13T10:00:40;21.80;99.90
16417;DHT22;8317;52.186;5.688;2023-07-13T10:03:19;22.00;99.90
16417;DHT22;8317;52.186;5.688;2023-07-13T10:05:50;22.10;99.90
16417;DHT22;8317;52.186;5.688;2023-07-13T10:08:18;22.50;99.90
16417;DHT22;8317;52.186;5.688;2023-07-13T10:10:46;22.50;99.90
16417;DHT22;8317;52.186;5.688;2023-07-13T10:13:34;22.30;99.90
16417;DHT22;8317;52.186;5.688;2023-07-13T10:16:03;21.80;99.90
16417;DHT22;8317;52.186;5.688;2023-07-13T10:18:37;21.40;99.90
16417;DHT22;8317;52.186;5.688;2023-07-13T10:21:15;21.00;99.90
16417;DHT22;8317;52.186;5.688;2023-07-13T10:23:43;20.30;99.90
16417;DHT22;8317;52.186;5.688;2023-07-13T10:26:18;19.80;99.90
16417;DHT22;8317;52.186;5.688;2023-07-13T10:28:51;19.40;99.90
16417;DHT22;8317;52.186;5.688;2023-07-13T10:31:19;19.20;99.90
16417;DHT22;8317;52.186;5.688;2023-07-13T10:33:47;19.20;99.90
16417;DHT22;8317;52.186;5.688;2023-07-13T10:36:20;19.40;99.90
16417;DHT22;8317;52.186;5.688;2023-07-13T10:38:50;20.00;99.90
16417;DHT22;8317;52.186;5.688;2023-07-13T10:54:19;20.90;99.90
16417;DHT22;8317;52.186;5.688;2023-07-13T10:56:52;21.90;99.90
16417;DHT22;8317;52.186;5.688;2023-07-13T10:59:24;22.30;99.90
16417;DHT22;8317;52.186;5.688;2023-07-13T11:01:56;22.40;99.90
16417;DHT22;8317;52.186;5.688;2023-07-13T11:04:26;22.20;99.90
16417;DHT22;8317;52.186;5.688;2023-07-13T11:06:57;21.80;99.90
16417;DHT22;8317;52.186;5.688;2023-07-13T11:09:38;21.50;99.90
16417;DHT22;8317;52.186;5.688;2023-07-13T11:12:26;21.40;99.90
16417;DHT22;8317;52.186;5.688;2023-07-13T11:15:10;21.20;99.90
16417;DHT22;8317;52.186;5.688;2023-07-13T11:17:48;21.00;99.90
16417;DHT22;8317;52.186;5.688;2023-07-13T11:20:33;21.30;99.90
16417;DHT22;8317;52.186;5.688;2023-07-13T11:23:28;22.00;99.90
16417;DHT22;8317;52.186;5.688;2023-07-13T11:25:58;22.30;99.90
16417;DHT22;8317;52.186;5.688;2023-07-13T11:28:29;22.60;99.90
16417;DHT22;8317;52.186;5.688;2023-07-13T11:31:02;22.90;99.90
16417;DHT22;8317;52.186;5.688;2023-07-13T11:33:49;23.00;99.90
16417;DHT22;8317;52.186;5.688;2023-07-13T11:36:19;22.70;99.90
16417;DHT22;8317;52.186;5.688;2023-07-13T11:38:55;22.20;99.90
16417;DHT22;8317;52.186;5.688;2023-07-13T11:41:28;21.60;99.90
16417;DHT22;8317;52.186;5.688;2023-07-13T11:44:05;21.60;99.90
16417;DHT22;8317;52.186;5.688;2023-07-13T11:46:33;21.80;99.90
16417;DHT22;8317;52.186;5.688;2023-07-13T11:49:00;22.20;99.90
16417;DHT22;8317;52.186;5.688;2023-07-13T11:51:29;21.90;99.90
16417;DHT22;8317;52.186;5.688;2023-07-13T11:54:01;21.90;99.90
16417;DHT22;8317;52.186;5.688;2023-07-13T11:56:30;22.10;99.90
16417;DHT22;8317;52.186;5.688;2023-07-13T11:59:05;22.10;99.90
16417;DHT22;8317;52.186;5.688;2023-07-13T12:01:33;22.30;99.90
16417;DHT22;8317;52.186;5.688;2023-07-13T12:04:00;22.20;99.90
16417;DHT22;8317;52.186;5.688;2023-07-13T12:06:30;21.90;99.90
16417;DHT22;8317;52.186;5.688;2023-07-13T12:08:58;21.50;99.90
16417;DHT22;8317;52.186;5.688;2023-07-13T12:11:26;21.20;99.90
16417;DHT22;8317;52.186;5.688;2023-07-13T12:13:55;21.00;99.90
16417;DHT22;8317;52.186;5.688;2023-07-13T12:16:27;20.70;99.90
16417;DHT22;8317;52.186;5.688;2023-07-13T12:18:56;20.50;99.90
16417;DHT22;8317;52.186;5.688;2023-07-13T12:21:30;20.40;99.90
16417;DHT22;8317;52.186;5.688;2023-07-13T12:23:58;20.30;99.90
16417;DHT22;8317;52.186;5.688;2023-07-13T12:26:28;20.30;99.90
16417;DHT22;8317;52.186;5.688;2023-07-13T12:28:59;20.30;99.90
16417;DHT22;8317;52.186;5.688;2023-07-13T12:31:34;20.30;99.90
16417;DHT22;8317;52.186;5.688;2023-07-13T12:34:02;20.30;99.90
16417;DHT22;8317;52.186;5.688;2023-07-13T12:36:32;20.30;99.90
16417;DHT22;8317;52.186;5.688;2023-07-13T12:39:06;20.40;99.90
16417;DHT22;8317;52.186;5.688;2023-07-13T12:41:38;20.50;99.90
16417;DHT22;8317;52.186;5.688;2023-07-13T12:44:10;20.50;99.90
16417;DHT22;8317;52.186;5.688;2023-07-13T12:46:38;20.60;99.90
16417;DHT22;8317;52.186;5.688;2023-07-13T12:49:06;20.90;99.90
16417;DHT22;8317;52.186;5.688;2023-07-13T12:51:34;21.00;99.90
16417;DHT22;8317;52.186;5.688;2023-07-13T12:54:12;21.10;99.90
16417;DHT22;8317;52.186;5.688;2023-07-13T12:56:39;21.00;99.90
16417;DHT22;8317;52.186;5.688;2023-07-13T12:59:15;20.90;99.90
16417;DHT22;8317;52.186;5.688;2023-07-13T13:01:43;21.00;99.90
16417;DHT22;8317;52.186;5.688;2023-07-13T13:04:11;21.00;99.90
16417;DHT22;8317;52.186;5.688;2023-07-13T13:06:38;21.10;99.90
16417;DHT22;8317;52.186;5.688;2023-07-13T13:09:12;21.30;99.90
16417;DHT22;8317;52.186;5.688;2023-07-13T13:11:40;21.70;99.90
16417;DHT22;8317;52.186;5.688;2023-07-13T13:14:09;21.90;99.90
16417;DHT22;8317;52.186;5.688;2023-07-13T13:16:45;22.10;99.90
16417;DHT22;8317;52.186;5.688;2023-07-13T13:19:15;22.10;99.90
16417;DHT22;8317;52.186;5.688;2023-07-13T13:21:43;21.90;99.90
16417;DHT22;8317;52.186;5.688;2023-07-13T13:24:14;21.80;99.90
16417;DHT22;8317;52.186;5.688;2023-07-13T13:26:42;22.00;99.90
16417;DHT22;8317;52.186;5.688;2023-07-13T13:29:14;22.20;99.90
16417;DHT22;8317;52.186;5.688;2023-07-13T13:31:41;22.50;99.90
16417;DHT22;8317;52.186;5.688;2023-07-13T13:34:10;22.40;99.90
16417;DHT22;8317;52.186;5.688;2023-07-13T13:36:38;22.20;99.90
16417;DHT22;8317;52.186;5.688;2023-07-13T13:39:10;22.00;99.90
16417;DHT22;8317;52.186;5.688;2023-07-13T13:41:42;21.80;99.90
16417;DHT22;8317;52.186;5.688;2023-07-13T13:44:09;22.00;99.90
16417;DHT22;8317;52.186;5.688;2023-07-13T13:46:38;22.30;99.90
16417;DHT22;8317;52.186;5.688;2023-07-13T13:49:04;22.60;99.90
16417;DHT22;8317;52.186;5.688;2023-07-13T13:51:32;22.70;99.90
16417;DHT22;8317;52.186;5.688;2023-07-13T13:53:59;22.50;99.90
16417;DHT22;8317;52.186;5.688;2023-07-13T13:56:27;22.20;99.90
16417;DHT22;8317;52.186;5.688;2023-07-13T13:58:54;21.90;99.90
16417;DHT22;8317;52.186;5.688;2023-07-13T14:01:22;21.80;99.90
16417;DHT22;8317;52.186;5.688;2023-07-13T14:03:51;21.80;99.90
16417;DHT22;8317;52.186;5.688;2023-07-13T14:06:18;21.60;99.90
16417;DHT22;8317;52.186;5.688;2023-07-13T14:08:45;21.40;99.90
16417;DHT22;8317;52.186;5.688;2023-07-13T14:11:15;21.30;99.90
16417;DHT22;8317;52.186;5.688;2023-07-13T14:13:44;21.40;99.90
16417;DHT22;8317;52.186;5.688;2023-07-13T14:16:19;21.70;99.90
16417;DHT22;8317;52.186;5.688;2023-07-13T14:18:54;22.10;99.90
16417;DHT22;8317;52.186;5.688;2023-07-13T14:21:24;22.40;99.90
16417;DHT22;8317;52.186;5.688;2023-07-13T14:23:51;22.50;99.90
16417;DHT22;8317;52.186;5.688;2023-07-13T14:26:20;22.40;99.90
16417;DHT22;8317;52.186;5.688;2023-07-13T14:28:49;22.40;99.90
16417;DHT22;8317;52.186;5.688;2023-07-13T14:31:17;22.30;99.90
16417;DHT22;8317;52.186;5.688;2023-07-13T14:33:45;22.20;99.90
16417;DHT22;8317;52.186;5.688;2023-07-13T14:36:26;22.20;99.90
16417;DHT22;8317;52.186;5.688;2023-07-13T14:38:54;22.00;99.90
16417;DHT22;8317;52.186;5.688;2023-07-13T14:41:21;21.80;99.90
16417;DHT22;8317;52.186;5.688;2023-07-13T14:43:48;21.80;99.90
16417;DHT22;8317;52.186;5.688;2023-07-13T14:46:27;22.00;99.90
16417;DHT22;8317;52.186;5.688;2023-07-13T14:52:23;22.20;99.90
16417;DHT22;8317;52.186;5.688;2023-07-13T14:54:51;22.20;99.90
16417;DHT22;8317;52.186;5.688;2023-07-13T14:57:20;22.10;99.90
16417;DHT22;8317;52.186;5.688;2023-07-13T14:59:47;22.20;99.90
16417;DHT22;8317;52.186;5.688;2023-07-13T15:02:19;22.50;99.90
16417;DHT22;8317;52.186;5.688;2023-07-13T15:04:49;22.90;99.90
16417;DHT22;8317;52.186;5.688;2023-07-13T15:07:16;22.90;99.90
16417;DHT22;8317;52.186;5.688;2023-07-13T15:09:45;22.70;99.90
16417;DHT22;8317;52.186;5.688;2023-07-13T15:12:13;22.40;99.90
16417;DHT22;8317;52.186;5.688;2023-07-13T15:14:40;22.30;99.90
16417;DHT22;8317;52.186;5.688;2023-07-13T15:17:19;22.50;99.90
16417;DHT22;8317;52.186;5.688;2023-07-13T15:19:50;22.50;99.90
16417;DHT22;8317;52.186;5.688;2023-07-13T15:22:17;22.40;99.90
16417;DHT22;8317;52.186;5.688;2023-07-13T15:24:45;22.30;99.90
16417;DHT22;8317;52.186;5.688;2023-07-13T15:27:13;22.10;99.90
16417;DHT22;8317;52.186;5.688;2023-07-13T15:29:40;22.00;99.90
16417;DHT22;8317;52.186;5.688;2023-07-13T15:32:12;22.10;99.90
16417;DHT22;8317;52.186;5.688;2023-07-13T15:34:39;22.20;99.90
16417;DHT22;8317;52.186;5.688;2023-07-13T15:37:12;22.40;99.90
16417;DHT22;8317;52.186;5.688;2023-07-13T15:39:40;22.20;99.90
16417;DHT22;8317;52.186;5.688;2023-07-13T15:42:14;22.10;99.90
16417;DHT22;8317;52.186;5.688;2023-07-13T15:44:41;22.20;99.90
16417;DHT22;8317;52.186;5.688;2023-07-13T15:47:10;22.40;99.90
16417;DHT22;8317;52.186;5.688;2023-07-13T15:49:38;22.50;99.90
16417;DHT22;8317;52.186;5.688;2023-07-13T15:52:13;22.40;99.90
16417;DHT22;8317;52.186;5.688;2023-07-13T15:54:43;22.00;99.90
16417;DHT22;8317;52.186;5.688;2023-07-13T15:57:11;21.90;99.90
16417;DHT22;8317;52.186;5.688;2023-07-13T15:59:38;21.90;99.90
16417;DHT22;8317;52.186;5.688;2023-07-13T16:02:12;21.90;99.90
16417;DHT22;8317;52.186;5.688;2023-07-13T16:04:39;21.90;99.90
16417;DHT22;8317;52.186;5.688;2023-07-13T16:07:09;21.80;99.90
16417;DHT22;8317;52.186;5.688;2023-07-13T16:09:37;21.80;99.90
16417;DHT22;8317;52.186;5.688;2023-07-13T16:12:11;21.70;99.90
16417;DHT22;8317;52.186;5.688;2023-07-13T16:14:38;21.60;99.90
16417;DHT22;8317;52.186;5.688;2023-07-13T16:17:07;21.70;99.90